Time;durP1;ratioP1;P1;durP2;ratioP2;P2;SDS_P1;SDS_P2;PMS_P1;PMS_P2;Temp;Humidity;BMP_temperature;BMP_pressure;BME280_temperature;BME280_humidity;BME280_pressure;Samples;Min_cycle;Max_cycle;Signal;HPM_P1;HPM_P2
2022/05/18 00:00:45;;;;;;;6.93;3.25;;;16.20;88.30;;;;;;5060800;28;20099;-68
2022/05/18 00:03:15;;;;;;;6.80;3.25;;;16.10;88.40;;;;;;5054928;28;20106;-69
2022/05/18 00:05:45;;;;;;;8.65;3.38;;;16.10;88.70;;;;;;5056929;28;20017;-68
2022/05/18 00:08:11;;;;;;;7.25;3.58;;;16.10;88.50;;;;;;5055693;28;20025;-67
2022/05/18 00:10:39;;;;;;;6.57;3.35;;;16.30;88.10;;;;;;5053956;28;20028;-68
2022/05/18 00:13:08;;;;;;;8.73;3.78;;;16.30;88.10;;;;;;5045885;28;20024;-68
2022/05/18 00:15:35;;;;;;;7.63;3.80;;;16.30;87.90;;;;;;5059229;28;20114;-68
2022/05/18 00:18:00;;;;;;;6.55;3.45;;;16.30;88.00;;;;;;5055820;28;20124;-68
2022/05/18 00:20:27;;;;;;;9.20;3.92;;;16.30;88.00;;;;;;5058064;28;20103;-68
2022/05/18 00:22:55;;;;;;;8.20;3.38;;;16.30;88.20;;;;;;5055607;28;20414;-68
2022/05/18 00:25:24;;;;;;;7.40;4.00;;;16.10;88.50;;;;;;5061061;28;20104;-68
2022/05/18 00:27:50;;;;;;;7.78;3.88;;;16.10;88.70;;;;;;5056026;28;20024;-68
2022/05/18 00:30:18;;;;;;;8.02;3.90;;;16.10;88.80;;;;;;5039469;28;20021;-68
2022/05/18 00:32:43;;;;;;;10.52;3.70;;;16.10;88.90;;;;;;5055966;28;20021;-68
2022/05/18 00:35:13;;;;;;;8.65;3.95;;;16.00;89.10;;;;;;5053991;28;20059;-68
2022/05/18 00:37:39;;;;;;;8.80;3.85;;;16.00;89.00;;;;;;5054914;28;20025;-68
2022/05/18 00:40:06;;;;;;;8.45;4.47;;;16.00;89.40;;;;;;5062032;28;20020;-68
2022/05/18 00:42:33;;;;;;;9.07;4.38;;;16.00;89.30;;;;;;5056268;28;20037;-68
2022/05/18 00:44:58;;;;;;;9.82;3.97;;;15.90;89.40;;;;;;5052688;28;20043;-67
2022/05/18 00:47:25;;;;;;;7.10;4.18;;;15.90;89.50;;;;;;5065020;28;20028;-68
2022/05/18 00:49:58;;;;;;;9.30;4.22;;;15.80;89.90;;;;;;5053850;28;20029;-67
2022/05/18 00:52:28;;;;;;;9.20;4.07;;;15.80;89.90;;;;;;5051780;28;20028;-68
2022/05/18 00:54:55;;;;;;;6.20;3.70;;;15.80;90.00;;;;;;5054454;28;20065;-68
2022/05/18 00:57:34;;;;;;;10.23;4.25;;;15.80;90.00;;;;;;5057094;28;20052;-68
2022/05/18 01:00:15;;;;;;;8.07;4.47;;;15.70;90.20;;;;;;5036665;28;20044;-68
2022/05/18 01:02:47;;;;;;;9.30;4.50;;;15.70;90.40;;;;;;5059224;28;20438;-68
2022/05/18 01:05:17;;;;;;;8.73;4.90;;;15.70;90.20;;;;;;5050672;28;20087;-68
2022/05/18 01:07:48;;;;;;;7.57;4.25;;;15.80;90.00;;;;;;5054770;28;20079;-68
2022/05/18 01:10:20;;;;;;;9.90;4.35;;;15.70;90.10;;;;;;5054748;28;20033;-68
2022/05/18 01:12:47;;;;;;;12.40;4.40;;;15.70;90.30;;;;;;5055396;28;20029;-68
2022/05/18 01:15:16;;;;;;;7.60;4.20;;;15.70;90.30;;;;;;5053846;28;20426;-68
2022/05/18 01:17:47;;;;;;;9.27;4.40;;;15.70;90.30;;;;;;5038781;28;20037;-68
2022/05/18 01:20:24;;;;;;;10.00;4.30;;;15.60;90.40;;;;;;5035653;28;20021;-69
2022/05/18 01:23:02;;;;;;;8.00;4.60;;;15.60;90.60;;;;;;5056049;28;20036;-68
2022/05/18 01:25:57;;;;;;;9.07;4.65;;;15.50;90.80;;;;;;5056507;28;20056;-68
2022/05/18 01:28:25;;;;;;;7.68;4.43;;;15.50;90.80;;;;;;5036395;28;20037;-68
2022/05/18 01:30:51;;;;;;;9.88;5.00;;;15.50;91.00;;;;;;5062202;28;20449;-69
2022/05/18 01:33:19;;;;;;;8.38;4.80;;;15.40;91.10;;;;;;5056480;28;20051;-70
2022/05/18 01:35:47;;;;;;;9.48;4.53;;;15.50;91.10;;;;;;5052881;28;20037;-69
2022/05/18 01:38:17;;;;;;;8.20;4.82;;;15.50;90.90;;;;;;5055431;28;20017;-69
2022/05/18 01:41:00;;;;;;;10.95;4.78;;;15.50;90.90;;;;;;5060001;28;20020;-69
2022/05/18 01:43:42;;;;;;;8.45;4.93;;;15.50;91.10;;;;;;5053611;28;20036;-69
2022/05/18 01:46:14;;;;;;;8.07;4.93;;;15.40;91.20;;;;;;5058041;28;20021;-68
2022/05/18 01:48:45;;;;;;;10.93;5.13;;;15.40;91.40;;;;;;5054741;28;20057;-69
2022/05/18 01:51:13;;;;;;;8.18;5.22;;;15.40;91.30;;;;;;5061611;28;20056;-69
2022/05/18 01:53:38;;;;;;;9.82;4.82;;;15.40;91.20;;;;;;5062140;28;20067;-68
2022/05/18 01:56:04;;;;;;;9.27;5.00;;;15.40;91.20;;;;;;5054068;28;20033;-69
2022/05/18 01:58:30;;;;;;;8.52;5.15;;;15.40;91.40;;;;;;5062380;28;20032;-69
2022/05/18 02:01:00;;;;;;;10.55;5.70;;;15.40;91.20;;;;;;5065827;28;20379;-68
2022/05/18 02:03:26;;;;;;;9.95;4.63;;;15.40;91.10;;;;;;5063336;28;20331;-68
2022/05/18 02:05:55;;;;;;;9.65;5.00;;;15.40;91.00;;;;;;5052226;28;20026;-69
2022/05/18 02:08:22;;;;;;;7.65;5.03;;;15.30;91.00;;;;;;5053783;28;20052;-69
2022/05/18 02:10:48;;;;;;;7.43;4.55;;;15.40;90.80;;;;;;5049978;28;20029;-69
2022/05/18 02:13:15;;;;;;;7.50;4.30;;;15.40;90.80;;;;;;5059215;28;20310;-69
2022/05/18 02:15:41;;;;;;;10.02;4.97;;;15.40;90.60;;;;;;5048123;28;20025;-68
2022/05/18 02:18:07;;;;;;;7.03;4.50;;;15.40;90.70;;;;;;5060992;28;20025;-68
2022/05/18 02:20:34;;;;;;;7.68;4.40;;;15.30;90.80;;;;;;5055101;28;20033;-69
2022/05/18 02:23:01;;;;;;;7.97;4.88;;;15.30;91.00;;;;;;5058312;28;20024;-69
2022/05/18 02:25:32;;;;;;;11.82;4.80;;;15.20;91.10;;;;;;5061254;28;20028;-68
2022/05/18 02:27:58;;;;;;;7.43;4.70;;;15.20;91.00;;;;;;5055109;28;21660;-68
2022/05/18 02:30:23;;;;;;;8.95;4.38;;;15.30;90.90;;;;;;5035527;28;20422;-69
2022/05/18 02:32:52;;;;;;;9.30;4.78;;;15.30;90.90;;;;;;5051838;28;20029;-68
2022/05/18 02:35:18;;;;;;;9.25;4.68;;;15.30;90.90;;;;;;5053295;28;20033;-69
2022/05/18 02:37:43;;;;;;;7.85;4.80;;;15.20;91.00;;;;;;5054485;28;20136;-68
2022/05/18 02:40:13;;;;;;;7.40;4.70;;;15.20;90.90;;;;;;5053303;28;20421;-68
2022/05/18 02:42:38;;;;;;;8.43;4.88;;;15.30;90.90;;;;;;5058642;28;20474;-68
2022/05/18 02:45:06;;;;;;;8.32;4.72;;;15.20;90.80;;;;;;5049788;28;20096;-68
2022/05/18 02:47:34;;;;;;;11.70;5.25;;;15.20;91.00;;;;;;5059645;28;20052;-68
2022/05/18 02:50:03;;;;;;;7.25;4.18;;;15.20;91.00;;;;;;5055768;28;20119;-69
2022/05/18 02:52:29;;;;;;;8.75;5.07;;;15.10;91.10;;;;;;5053925;28;20025;-69
2022/05/18 02:57:39;;;;;;;11.90;4.72;;;15.10;91.00;;;;;;5052312;28;20053;-69
2022/05/18 03:00:08;;;;;;;7.80;5.00;;;15.10;90.90;;;;;;5052027;28;20028;-68
2022/05/18 03:02:37;;;;;;;9.63;4.60;;;15.10;91.00;;;;;;5054350;28;20064;-69
2022/05/18 03:05:03;;;;;;;7.25;4.50;;;15.20;90.60;;;;;;5047810;28;20072;-68
2022/05/18 03:07:28;;;;;;;8.57;4.00;;;15.20;90.40;;;;;;5055975;28;20057;-69
2022/05/18 03:09:54;;;;;;;6.97;4.20;;;15.20;90.40;;;;;;5035535;28;20041;-68
2022/05/18 03:12:19;;;;;;;8.50;4.55;;;15.10;90.60;;;;;;5052856;28;20116;-69
2022/05/18 03:14:45;;;;;;;10.00;4.20;;;15.10;90.40;;;;;;5058866;28;20330;-68
2022/05/18 03:17:13;;;;;;;9.52;4.85;;;15.10;90.40;;;;;;5054672;28;20044;-68
2022/05/18 03:19:41;;;;;;;6.85;4.10;;;15.10;90.50;;;;;;5052137;28;20370;-69
2022/05/18 03:24:51;;;;;;;8.10;4.43;;;15.00;90.60;;;;;;5061319;28;20070;-68
2022/05/18 03:27:17;;;;;;;7.85;4.10;;;15.00;90.50;;;;;;5060171;28;20454;-68
2022/05/18 03:29:43;;;;;;;9.38;4.32;;;15.10;90.50;;;;;;5052937;28;20048;-68
2022/05/18 03:32:13;;;;;;;6.95;4.15;;;15.10;90.40;;;;;;5033102;28;20483;-68
2022/05/18 03:34:39;;;;;;;6.63;3.90;;;15.10;90.50;;;;;;5058026;28;20086;-69
2022/05/18 03:37:05;;;;;;;6.82;4.18;;;15.00;90.60;;;;;;5063169;28;20098;-68
2022/05/18 03:39:30;;;;;;;8.25;4.00;;;15.00;90.60;;;;;;5054967;28;20060;-69
2022/05/18 03:41:57;;;;;;;7.20;4.30;;;15.10;90.60;;;;;;5062061;28;20075;-68
2022/05/18 03:44:23;;;;;;;7.10;4.20;;;15.10;90.30;;;;;;5052823;28;20151;-68
2022/05/18 03:46:54;;;;;;;7.18;3.58;;;15.10;90.40;;;;;;5055985;28;20075;-68
2022/05/18 03:49:20;;;;;;;8.65;4.20;;;15.10;90.20;;;;;;5058497;28;20320;-68
2022/05/18 03:51:47;;;;;;;9.15;4.28;;;15.20;90.10;;;;;;5060237;28;20025;-69
2022/05/18 03:54:15;;;;;;;9.23;4.35;;;15.20;90.00;;;;;;5053407;28;20025;-68
2022/05/18 03:56:41;;;;;;;7.80;4.10;;;15.30;90.00;;;;;;5053914;28;20120;-68
2022/05/18 03:59:09;;;;;;;9.65;4.35;;;15.30;89.90;;;;;;5036109;28;20124;-68
2022/05/18 04:01:35;;;;;;;8.23;4.18;;;15.20;90.10;;;;;;5054132;28;20025;-68
2022/05/18 04:04:01;;;;;;;8.82;4.45;;;15.20;90.20;;;;;;5052517;28;20418;-68
2022/05/18 04:06:26;;;;;;;9.55;4.30;;;15.20;90.30;;;;;;5050662;28;20021;-68
2022/05/18 04:08:55;;;;;;;9.18;4.22;;;15.10;90.50;;;;;;5049733;28;20028;-68
2022/05/18 04:11:21;;;;;;;9.77;4.22;;;15.20;90.50;;;;;;5057055;28;20028;-69
2022/05/18 04:13:46;;;;;;;8.30;4.20;;;15.20;90.40;;;;;;5049794;28;20047;-68
2022/05/18 04:16:12;;;;;;;9.85;4.18;;;15.20;90.40;;;;;;5046566;28;20100;-68
2022/05/18 04:18:38;;;;;;;7.68;4.00;;;15.30;90.40;;;;;;5047198;28;20136;-69
2022/05/18 04:21:04;;;;;;;10.18;4.35;;;15.20;90.80;;;;;;5048240;28;20072;-67
2022/05/18 04:23:29;;;;;;;7.63;4.20;;;15.20;90.70;;;;;;5051483;28;20030;-67
2022/05/18 04:25:56;;;;;;;6.55;3.75;;;15.20;90.80;;;;;;5052465;28;20071;-69
2022/05/18 04:28:24;;;;;;;6.85;3.97;;;15.20;90.60;;;;;;5051526;28;20048;-68
2022/05/18 04:30:50;;;;;;;7.60;3.40;;;15.30;90.40;;;;;;5057317;28;20037;-68
2022/05/18 04:33:19;;;;;;;7.65;4.22;;;15.30;90.40;;;;;;5048497;28;20476;-68
2022/05/18 04:35:49;;;;;;;8.23;3.95;;;15.30;90.80;;;;;;5056250;28;20054;-68
2022/05/18 04:38:15;;;;;;;5.90;3.78;;;15.30;90.70;;;;;;5056009;28;20024;-68
2022/05/18 04:40:53;;;;;;;8.25;3.63;;;15.30;90.60;;;;;;5035620;28;20117;-68
2022/05/18 04:43:20;;;;;;;7.18;4.05;;;15.30;90.40;;;;;;5049098;28;20033;-68
2022/05/18 04:45:46;;;;;;;7.30;3.85;;;15.40;90.40;;;;;;5056250;28;20025;-68
2022/05/18 04:48:19;;;;;;;8.13;3.83;;;15.40;90.30;;;;;;5054975;28;20029;-68
2022/05/18 04:50:47;;;;;;;5.75;3.50;;;15.50;89.90;;;;;;5052561;28;20086;-68
2022/05/18 04:53:14;;;;;;;7.70;3.80;;;15.60;90.00;;;;;;5057038;28;20029;-68
2022/05/18 04:55:40;;;;;;;7.07;3.60;;;15.60;90.10;;;;;;5054213;28;20330;-68
2022/05/18 04:58:06;;;;;;;6.75;3.70;;;15.60;89.80;;;;;;5048222;28;20029;-68
2022/05/18 05:00:35;;;;;;;6.30;3.90;;;15.70;89.60;;;;;;5057547;28;20021;-68
2022/05/18 05:03:01;;;;;;;6.90;3.92;;;15.80;89.20;;;;;;5049509;28;20048;-67
2022/05/18 05:05:27;;;;;;;7.57;3.63;;;15.90;89.10;;;;;;5054143;28;20029;-68
2022/05/18 05:07:54;;;;;;;7.15;4.00;;;15.90;89.50;;;;;;5040065;28;20032;-68
2022/05/18 05:10:19;;;;;;;8.15;3.97;;;15.90;89.40;;;;;;5057074;28;20470;-68
2022/05/18 05:12:45;;;;;;;7.30;3.67;;;15.90;89.40;;;;;;5058103;28;20148;-68
2022/05/18 05:15:12;;;;;;;7.40;3.50;;;15.90;89.50;;;;;;5052005;28;20090;-68
2022/05/18 05:17:38;;;;;;;7.50;3.47;;;16.00;89.10;;;;;;5032275;28;20025;-68
2022/05/18 05:20:05;;;;;;;7.20;3.97;;;16.10;88.70;;;;;;5054252;28;20028;-68
2022/05/18 05:22:33;;;;;;;7.25;3.78;;;16.30;88.30;;;;;;5057219;28;20340;-68
2022/05/18 05:24:59;;;;;;;5.30;3.33;;;16.40;88.10;;;;;;5057827;28;20107;-68
2022/05/18 05:27:24;;;;;;;7.40;3.47;;;16.50;88.00;;;;;;5054843;28;20104;-67
2022/05/18 05:29:50;;;;;;;8.15;4.00;;;16.60;86.90;;;;;;5055695;28;20108;-68
2022/05/18 05:32:19;;;;;;;6.60;3.60;;;16.90;86.20;;;;;;5051838;28;20057;-67
2022/05/18 05:34:47;;;;;;;7.88;3.83;;;17.00;85.50;;;;;;5055561;28;20020;-68
2022/05/18 05:37:13;;;;;;;7.70;3.50;;;17.20;84.60;;;;;;5055130;28;20017;-68
2022/05/18 05:39:38;;;;;;;5.70;3.20;;;17.40;84.30;;;;;;5054551;28;20024;-68
2022/05/18 05:42:04;;;;;;;7.80;3.38;;;17.40;83.90;;;;;;5056346;28;20025;-68
2022/05/18 05:44:30;;;;;;;7.20;3.50;;;17.50;84.10;;;;;;5055123;28;20025;-68
2022/05/18 05:46:56;;;;;;;8.55;3.85;;;17.60;84.10;;;;;;5055949;28;20036;-68
2022/05/18 05:49:22;;;;;;;6.43;3.78;;;17.70;83.60;;;;;;5055028;28;20021;-67
2022/05/18 05:51:50;;;;;;;7.88;3.55;;;17.80;83.30;;;;;;5053847;28;20021;-68
2022/05/18 05:54:15;;;;;;;7.93;3.70;;;17.80;83.10;;;;;;5054344;28;20025;-68
2022/05/18 05:56:41;;;;;;;6.10;3.38;;;18.00;82.50;;;;;;5056599;28;20499;-68
2022/05/18 05:59:09;;;;;;;8.23;3.72;;;18.10;81.70;;;;;;5055459;28;20100;-68
2022/05/18 06:01:34;;;;;;;5.35;3.10;;;18.20;81.60;;;;;;5055670;28;20443;-68
2022/05/18 06:04:00;;;;;;;7.78;3.40;;;18.20;82.20;;;;;;5054265;28;20044;-68
2022/05/18 06:06:28;;;;;;;5.95;2.92;;;18.40;80.90;;;;;;5052349;28;20025;-68
2022/05/18 06:08:54;;;;;;;8.45;3.72;;;18.50;81.00;;;;;;5053591;28;20024;-68
2022/05/18 06:11:20;;;;;;;8.80;3.30;;;18.50;80.60;;;;;;5055793;28;20058;-68
2022/05/18 06:13:46;;;;;;;7.65;3.50;;;18.60;80.00;;;;;;5054534;28;20029;-68
2022/05/18 06:16:12;;;;;;;7.00;3.28;;;18.70;80.70;;;;;;5054446;28;20025;-68
2022/05/18 06:18:38;;;;;;;8.10;3.40;;;18.80;80.30;;;;;;5054511;28;20040;-68
2022/05/18 06:21:07;;;;;;;5.75;2.97;;;18.90;79.50;;;;;;5054071;28;20442;-68
2022/05/18 06:23:36;;;;;;;6.13;3.10;;;19.00;80.10;;;;;;5053988;28;20044;-68
2022/05/18 06:26:05;;;;;;;7.28;3.00;;;19.00;78.20;;;;;;5051425;28;20024;-68
2022/05/18 06:28:36;;;;;;;7.82;3.15;;;19.10;79.40;;;;;;5053252;28;20052;-68
2022/05/18 06:31:02;;;;;;;7.35;3.42;;;19.20;78.80;;;;;;5055289;28;20033;-68
2022/05/18 06:33:28;;;;;;;6.00;3.10;;;19.20;78.20;;;;;;5033748;28;20429;-68
2022/05/18 06:35:54;;;;;;;9.65;3.33;;;19.20;79.00;;;;;;5050276;28;20036;-68
2022/05/18 06:38:20;;;;;;;11.25;3.42;;;19.30;79.30;;;;;;5053472;28;20039;-68
2022/05/18 06:43:30;;;;;;;8.02;3.33;;;19.40;78.80;;;;;;5052876;28;20028;-68
2022/05/18 06:45:57;;;;;;;9.55;3.33;;;19.50;78.60;;;;;;5053683;28;20322;-68
2022/05/18 06:48:23;;;;;;;7.70;3.13;;;19.50;78.50;;;;;;5054387;28;20029;-68
2022/05/18 06:50:50;;;;;;;5.53;3.20;;;19.60;79.30;;;;;;5052047;28;20082;-68
2022/05/18 06:53:18;;;;;;;7.60;3.35;;;19.70;78.80;;;;;;5054728;28;20021;-68
2022/05/18 06:55:43;;;;;;;7.55;3.75;;;19.80;79.30;;;;;;5036838;28;20334;-68
2022/05/18 06:58:12;;;;;;;6.78;3.38;;;19.90;78.60;;;;;;5036600;28;20021;-68
2022/05/18 07:00:38;;;;;;;8.00;3.83;;;20.00;78.90;;;;;;5049876;28;20032;-67
2022/05/18 07:03:04;;;;;;;6.95;3.67;;;20.10;77.20;;;;;;5053946;28;20037;-68
2022/05/18 07:05:31;;;;;;;6.30;3.35;;;20.10;78.80;;;;;;5051905;28;20134;-68
2022/05/18 07:07:59;;;;;;;8.68;4.00;;;20.20;77.70;;;;;;5055543;28;20028;-68
2022/05/18 07:10:27;;;;;;;5.88;3.33;;;20.30;77.10;;;;;;5054706;28;20025;-68
2022/05/18 07:12:53;;;;;;;8.30;3.67;;;20.40;77.80;;;;;;5054487;28;20491;-68
2022/05/18 07:15:22;;;;;;;6.10;3.45;;;20.50;77.20;;;;;;5054499;28;20113;-68
2022/05/18 07:17:48;;;;;;;7.20;3.42;;;20.60;77.90;;;;;;5047042;28;20033;-67
2022/05/18 07:20:13;;;;;;;10.88;3.85;;;20.70;77.10;;;;;;5052215;28;20425;-69
2022/05/18 07:22:39;;;;;;;7.97;3.58;;;20.70;76.30;;;;;;5054782;28;20037;-69
2022/05/18 07:25:08;;;;;;;8.82;3.38;;;20.80;76.90;;;;;;5055972;28;20402;-68
2022/05/18 07:27:33;;;;;;;6.57;3.42;;;20.80;75.90;;;;;;5050229;28;20447;-68
2022/05/18 07:30:04;;;;;;;7.25;3.95;;;21.10;76.80;;;;;;5037653;28;20025;-69
2022/05/18 07:32:30;;;;;;;6.28;3.40;;;21.90;76.00;;;;;;5052091;28;20060;-69
2022/05/18 07:34:55;;;;;;;6.05;3.30;;;22.90;74.00;;;;;;5054315;28;20433;-68
2022/05/18 07:37:22;;;;;;;7.35;3.35;;;23.60;71.00;;;;;;5046547;28;20027;-69
2022/05/18 07:39:48;;;;;;;6.15;3.50;;;24.20;69.70;;;;;;5055586;28;20534;-69
2022/05/18 07:42:13;;;;;;;9.05;4.10;;;24.50;67.50;;;;;;5053443;28;20029;-69
2022/05/18 07:44:39;;;;;;;7.25;3.33;;;24.80;67.20;;;;;;5055518;28;20053;-69
2022/05/18 07:47:06;;;;;;;6.80;3.80;;;25.30;66.10;;;;;;5053814;28;20094;-68
2022/05/18 07:49:41;;;;;;;6.20;3.70;;;24.70;65.60;;;;;;5051972;28;20454;-69
2022/05/18 07:52:07;;;;;;;8.25;3.60;;;24.30;66.70;;;;;;5048495;28;20035;-68
2022/05/18 07:54:33;;;;;;;7.40;3.40;;;24.00;67.00;;;;;;5055490;28;20344;-68
2022/05/18 07:56:59;;;;;;;6.82;3.33;;;24.00;68.40;;;;;;5052671;28;20028;-68
2022/05/18 07:59:28;;;;;;;6.85;3.35;;;24.30;67.30;;;;;;5051396;28;20429;-68
2022/05/18 08:01:53;;;;;;;5.97;3.70;;;24.00;67.40;;;;;;5051132;28;20025;-68
2022/05/18 08:04:19;;;;;;;7.35;3.17;;;23.90;67.20;;;;;;5053588;28;20055;-68
2022/05/18 08:06:45;;;;;;;6.60;3.22;;;24.00;67.70;;;;;;5051702;28;20096;-71
2022/05/18 08:09:11;;;;;;;6.10;3.03;;;24.10;68.90;;;;;;5053342;28;20477;-76
2022/05/18 08:17:05;;;;;;;;;;;25.40;67.00;;;;;;5054984;28;20120;-69
2022/05/18 08:19:33;;;;;;;10.35;3.20;;;26.10;65.30;;;;;;5055054;28;20003;-68
2022/05/18 08:22:01;;;;;;;7.00;3.10;;;26.60;63.90;;;;;;5057320;28;20036;-68
2022/05/18 08:24:27;;;;;;;8.45;2.97;;;26.80;62.10;;;;;;5057239;28;20111;-68
2022/05/18 08:26:52;;;;;;;8.35;2.92;;;26.40;61.60;;;;;;5056780;28;20371;-68
2022/05/18 08:29:18;;;;;;;7.10;2.85;;;26.00;61.50;;;;;;5056918;28;20025;-68
2022/05/18 08:31:44;;;;;;;8.38;3.22;;;26.20;62.30;;;;;;5057183;28;20411;-68
2022/05/18 08:34:09;;;;;;;6.75;2.83;;;26.90;63.40;;;;;;5056776;28;20025;-68
2022/05/18 08:36:35;;;;;;;10.48;3.63;;;27.50;61.90;;;;;;5056927;28;20033;-68
2022/05/18 08:39:01;;;;;;;6.88;3.60;;;27.90;60.10;;;;;;5057177;28;20041;-68
2022/05/18 08:41:41;;;;;;;9.88;3.95;;;27.90;60.50;;;;;;5057105;28;20116;-68
2022/05/18 08:44:08;;;;;;;6.15;2.58;;;28.10;62.10;;;;;;5058204;28;20052;-68
2022/05/18 08:46:43;;;;;;;6.78;2.92;;;28.70;60.30;;;;;;5055337;28;20029;-68
2022/05/18 08:49:35;;;;;;;7.78;2.80;;;28.20;59.70;;;;;;5056905;28;20766;-68
2022/05/18 08:52:04;;;;;;;5.72;2.80;;;28.40;60.40;;;;;;5055052;28;20051;-68
2022/05/18 08:54:54;;;;;;;7.05;3.38;;;28.70;58.00;;;;;;5056780;28;20017;-69
2022/05/18 08:57:25;;;;;;;6.07;2.95;;;28.50;58.50;;;;;;5052388;28;20037;-69
2022/05/18 08:59:57;;;;;;;8.55;2.85;;;28.20;59.10;;;;;;5056350;28;20027;-68
2022/05/18 09:02:34;;;;;;;6.63;2.80;;;28.40;58.30;;;;;;5056140;28;20449;-69
2022/05/18 09:05:07;;;;;;;9.00;2.55;;;28.30;57.90;;;;;;5055345;28;20449;-69
2022/05/18 09:07:52;;;;;;;6.82;2.80;;;28.80;57.90;;;;;;5055351;28;20021;-68
2022/05/18 09:10:31;;;;;;;6.38;2.42;;;29.20;55.90;;;;;;5056257;28;20060;-68
2022/05/18 09:13:04;;;;;;;7.75;2.30;;;29.30;58.40;;;;;;5055630;28;20299;-68
2022/05/18 09:15:59;;;;;;;4.07;2.00;;;30.20;56.60;;;;;;5052782;28;20033;-68
2022/05/18 09:19:04;;;;;;;5.30;2.03;;;30.00;54.40;;;;;;5056091;28;20036;-68
2022/05/18 09:21:42;;;;;;;4.72;2.22;;;30.00;54.70;;;;;;5041621;28;20090;-68
2022/05/18 09:24:27;;;;;;;8.23;2.47;;;29.20;55.40;;;;;;5047363;28;20025;-68
2022/05/18 09:26:56;;;;;;;5.25;2.13;;;29.00;57.10;;;;;;5036220;28;20021;-67
2022/05/18 09:29:41;;;;;;;5.72;2.17;;;28.90;55.40;;;;;;5057733;28;20295;-67
2022/05/18 09:32:48;;;;;;;5.32;2.83;;;28.50;57.10;;;;;;5057001;28;20384;-68
2022/05/18 09:35:28;;;;;;;5.30;2.50;;;28.50;59.20;;;;;;4974341;28;20034;-68
2022/05/18 09:38:05;;;;;;;5.53;2.65;;;28.50;57.30;;;;;;5046822;28;20049;-68
2022/05/18 09:40:41;;;;;;;6.25;2.70;;;28.40;57.00;;;;;;5038988;28;20291;-68
2022/05/18 09:43:40;;;;;;;6.63;2.67;;;28.70;57.40;;;;;;5056548;28;20028;-67
2022/05/18 09:46:09;;;;;;;4.85;2.20;;;29.90;55.80;;;;;;5052519;28;20021;-68
2022/05/18 09:48:48;;;;;;;6.28;1.90;;;30.30;54.80;;;;;;5043711;28;20063;-68
2022/05/18 09:51:17;;;;;;;4.75;2.20;;;30.50;53.70;;;;;;5052860;28;20032;-68
2022/05/18 09:53:43;;;;;;;3.30;1.58;;;30.80;52.30;;;;;;5055662;28;20088;-68
2022/05/18 09:56:15;;;;;;;5.13;1.95;;;31.30;51.80;;;;;;5055407;28;20033;-69
2022/05/18 09:58:45;;;;;;;5.45;2.08;;;31.60;51.40;;;;;;5055252;28;20036;-68
2022/05/18 10:09:44;;;;;;;4.55;1.50;;;31.10;51.90;;;;;;5054405;28;20044;-68
2022/05/18 10:12:26;;;;;;;4.03;1.52;;;30.50;49.20;;;;;;5055934;28;20025;-68
2022/05/18 10:14:59;;;;;;;4.63;1.52;;;30.10;49.00;;;;;;5055411;28;20024;-68
2022/05/18 10:17:32;;;;;;;4.28;1.58;;;30.50;50.70;;;;;;5057172;28;20020;-68
2022/05/18 10:20:07;;;;;;;4.03;1.50;;;30.60;49.70;;;;;;5054237;28;20086;-68
2022/05/18 10:22:39;;;;;;;3.70;1.63;;;30.30;51.40;;;;;;5054373;28;20279;-69
2022/05/18 10:25:23;;;;;;;5.05;1.70;;;30.60;50.10;;;;;;5055433;28;20021;-67
2022/05/18 10:27:49;;;;;;;5.45;1.85;;;30.30;50.00;;;;;;5057024;28;20430;-69
2022/05/18 10:30:17;;;;;;;3.80;1.40;;;30.70;49.30;;;;;;5037733;28;20033;-68
2022/05/18 10:33:18;;;;;;;4.75;1.85;;;30.50;49.90;;;;;;5056181;28;20021;-68
2022/05/18 10:35:53;;;;;;;2.95;1.35;;;30.90;48.30;;;;;;5040485;28;20037;-68
2022/05/18 10:38:26;;;;;;;3.97;1.67;;;30.80;48.70;;;;;;5055478;28;20059;-68
2022/05/18 10:41:04;;;;;;;4.93;2.05;;;30.70;49.90;;;;;;5053455;28;21643;-69
2022/05/18 10:43:36;;;;;;;4.20;1.70;;;31.10;48.00;;;;;;5043180;28;20100;-68
2022/05/18 10:46:12;;;;;;;4.72;1.65;;;30.60;46.60;;;;;;5053826;28;20045;-69
2022/05/18 10:48:40;;;;;;;3.60;1.52;;;30.50;51.40;;;;;;5054021;28;20043;-69
2022/05/18 10:51:13;;;;;;;4.85;1.42;;;30.60;49.00;;;;;;5050825;28;20105;-68
2022/05/18 10:53:43;;;;;;;5.45;2.00;;;30.70;47.80;;;;;;5052777;28;20059;-68
2022/05/18 10:56:26;;;;;;;8.88;2.53;;;29.50;49.00;;;;;;5051829;28;20052;-68
2022/05/18 10:59:12;;;;;;;5.03;1.90;;;29.20;49.50;;;;;;5051494;28;20421;-68
2022/05/18 11:01:48;;;;;;;4.43;1.60;;;29.30;50.50;;;;;;5041795;28;20025;-68
2022/05/18 11:04:29;;;;;;;6.13;2.28;;;29.50;50.90;;;;;;5036268;28;20036;-68
2022/05/18 11:06:55;;;;;;;4.93;1.70;;;29.40;51.90;;;;;;5054339;28;20051;-68
2022/05/18 11:09:42;;;;;;;4.13;1.90;;;29.60;50.30;;;;;;5055514;28;20353;-70
2022/05/18 11:12:15;;;;;;;6.45;1.70;;;29.80;49.40;;;;;;5050886;28;20033;-68
2022/05/18 11:15:00;;;;;;;;;;;30.00;49.90;;;;;;5051973;28;20075;-69
2022/05/18 11:17:33;;;;;;;;;;;30.00;50.90;;;;;;5034395;28;20213;-68
2022/05/18 11:20:24;;;;;;;4.88;2.05;;;30.30;51.60;;;;;;5042624;28;21486;-68
2022/05/18 11:22:58;;;;;;;4.45;1.80;;;30.20;50.20;;;;;;5037326;28;20112;-68
2022/05/18 11:25:52;;;;;;;6.60;2.65;;;30.00;50.40;;;;;;5032793;28;20098;-67
2022/05/18 11:28:29;;;;;;;6.18;1.80;;;29.60;51.20;;;;;;4935969;28;20109;-68
2022/05/18 11:31:04;;;;;;;4.03;1.70;;;29.30;52.20;;;;;;5031352;28;20067;-69
2022/05/18 11:33:35;;;;;;;5.03;1.75;;;29.70;53.80;;;;;;5042889;28;20031;-67
2022/05/18 11:36:16;;;;;;;3.50;1.55;;;29.80;50.70;;;;;;5033687;28;20039;-68
2022/05/18 11:39:10;;;;;;;3.45;1.83;;;29.70;51.00;;;;;;5036407;28;20029;-67
2022/05/18 11:42:13;;;;;;;5.30;1.70;;;29.50;50.80;;;;;;5036575;28;20461;-68
2022/05/18 11:45:17;;;;;;;5.63;1.77;;;29.50;51.90;;;;;;5017013;28;20029;-68
2022/05/18 11:48:07;;;;;;;6.35;1.80;;;29.80;51.50;;;;;;5035873;28;21557;-68
2022/05/18 11:51:04;;;;;;;3.60;1.60;;;29.40;51.80;;;;;;5037699;28;20033;-67
2022/05/18 11:53:44;;;;;;;5.30;1.67;;;29.50;52.80;;;;;;5052520;28;20029;-68
2022/05/18 11:56:21;;;;;;;4.95;1.52;;;29.80;51.10;;;;;;5051212;28;20025;-69
2022/05/18 12:02:20;;;;;;;3.60;1.88;;;29.60;52.50;;;;;;5037070;28;20033;-69
2022/05/18 12:05:17;;;;;;;4.10;1.65;;;29.90;50.60;;;;;;5056291;28;20087;-69
2022/05/18 12:08:25;;;;;;;2.83;1.40;;;29.90;49.80;;;;;;5024002;28;20450;-68
2022/05/18 12:11:07;;;;;;;2.63;1.33;;;29.80;49.70;;;;;;5043968;28;20033;-69
2022/05/18 12:13:47;;;;;;;3.35;1.60;;;29.70;51.20;;;;;;5035702;28;20036;-69
2022/05/18 12:16:20;;;;;;;4.60;1.95;;;29.80;50.20;;;;;;5043341;28;20035;-69
2022/05/18 12:18:56;;;;;;;5.60;1.77;;;29.60;49.40;;;;;;5035449;28;20025;-68
2022/05/18 12:21:28;;;;;;;5.05;1.77;;;29.60;50.00;;;;;;5038316;28;20048;-68
2022/05/18 12:24:00;;;;;;;8.43;1.55;;;29.90;51.00;;;;;;5038688;28;20021;-69
2022/05/18 12:26:27;;;;;;;5.40;1.50;;;30.50;48.90;;;;;;5035816;28;20221;-69
2022/05/18 12:28:54;;;;;;;3.97;1.50;;;30.30;50.80;;;;;;5035933;28;20334;-68
2022/05/18 12:31:20;;;;;;;4.10;1.30;;;30.20;49.80;;;;;;5039182;28;20056;-68
2022/05/18 12:34:11;;;;;;;4.85;1.75;;;30.10;51.20;;;;;;5038125;28;20184;-68
2022/05/18 12:36:43;;;;;;;3.72;1.50;;;30.40;49.60;;;;;;4989879;28;20048;-68
2022/05/18 12:39:13;;;;;;;4.43;1.42;;;30.60;51.10;;;;;;5037628;28;20052;-69
2022/05/18 12:41:49;;;;;;;4.38;1.40;;;30.90;49.50;;;;;;5035638;28;20051;-68
2022/05/18 12:44:49;;;;;;;5.60;1.27;;;31.10;48.50;;;;;;5035627;28;20036;-69
2022/05/18 12:47:26;;;;;;;4.15;1.50;;;31.50;49.10;;;;;;5038637;28;20033;-68
2022/05/18 12:50:16;;;;;;;2.90;1.40;;;31.50;47.30;;;;;;5038009;28;20040;-68
2022/05/18 12:52:53;;;;;;;4.75;1.50;;;31.20;48.40;;;;;;5035228;28;20029;-69
2022/05/18 12:55:31;;;;;;;4.35;1.48;;;31.70;49.70;;;;;;5040258;28;20061;-68
2022/05/18 12:58:30;;;;;;;6.45;1.48;;;31.80;49.50;;;;;;5039411;28;20040;-69
2022/05/18 13:01:02;;;;;;;3.35;1.50;;;31.80;49.00;;;;;;5049957;28;20029;-68
2022/05/18 13:03:53;;;;;;;3.65;1.33;;;32.10;46.80;;;;;;5055862;28;20096;-69
2022/05/18 13:06:35;;;;;;;3.90;1.40;;;31.90;46.90;;;;;;5046785;28;20024;-69
2022/05/18 13:09:19;;;;;;;3.65;1.30;;;31.80;48.20;;;;;;5047892;28;20029;-68
2022/05/18 13:11:51;;;;;;;3.17;1.42;;;31.90;46.50;;;;;;5040852;28;20025;-69
2022/05/18 13:14:24;;;;;;;3.40;1.30;;;31.80;47.60;;;;;;5036074;28;20033;-69
2022/05/18 13:16:50;;;;;;;4.82;1.50;;;32.40;47.90;;;;;;5037966;28;20156;-68
2022/05/18 13:19:20;;;;;;;3.35;1.40;;;32.90;46.80;;;;;;5044779;28;20508;-69
2022/05/18 13:21:46;;;;;;;3.80;1.20;;;32.70;46.00;;;;;;5049059;28;20013;-68
2022/05/18 13:24:20;;;;;;;4.28;1.60;;;32.30;47.20;;;;;;5054085;28;20078;-69
2022/05/18 13:26:49;;;;;;;4.47;1.50;;;32.50;46.80;;;;;;5057267;28;20053;-68
2022/05/18 13:29:24;;;;;;;3.13;1.45;;;32.30;47.40;;;;;;5055495;28;20440;-68
2022/05/18 13:31:56;;;;;;;5.28;1.70;;;32.40;47.60;;;;;;5057429;28;20048;-68
2022/05/18 13:34:25;;;;;;;3.47;1.60;;;32.40;46.60;;;;;;5055366;28;20076;-68